Terminal Aerodrome Forecast
Issued by NWS

Home | Current Version | Previous Version | Text Only | Print | Product List | Glossary On
Versions: 1 2 3 4 5 6 7 8 9 10 11 12 13 14 15
000
FTUS43 KPAH 221700
TAFCGI
TAF
KCGI 221720Z 2218/2318 24004KT P6SM SKC
     FM230245 VRB03KT P6SM SCT150
      TEMPO 2308/2311 3SM BR MIFG
     FM231130 23004KT P6SM SCT045 BKN180 PROB30 2312/2314 -SHRA
      BKN060=

USA.gov is the U.S. government's official web portal to all federal, state and local government web resources and services.